createdAt,value
2018-03-02T00:00:43.713Z,6.50
2018-03-02T00:03:12.060Z,10.67
2018-03-02T00:05:40.379Z,10.13
2018-03-02T00:08:08.695Z,10.80
2018-03-02T00:10:37.012Z,13.53
2018-03-02T00:13:05.354Z,10.80
2018-03-02T00:15:34.575Z,8.80
2018-03-02T00:18:03.679Z,9.23
2018-03-02T00:20:32.764Z,12.17
2018-03-02T00:23:01.077Z,8.60
2018-03-02T00:25:30.166Z,10.73
2018-03-02T00:27:58.539Z,6.23
2018-03-02T00:30:26.875Z,12.07
2018-03-02T00:32:55.974Z,10.17
2018-03-02T00:35:25.075Z,10.77
2018-03-02T00:37:53.469Z,10.67
2018-03-02T00:40:21.887Z,9.70
2018-03-02T00:42:50.249Z,11.00
2018-03-02T00:45:18.704Z,7.37
2018-03-02T00:47:47.064Z,8.20
2018-03-02T00:50:15.483Z,11.40
2018-03-02T00:52:44.158Z,11.73
2018-03-02T00:55:12.516Z,12.60
2018-03-02T00:57:40.827Z,11.60
2018-03-02T01:00:09.152Z,12.13
2018-03-02T01:02:37.467Z,11.17
2018-03-02T01:05:05.861Z,12.47
2018-03-02T01:07:34.192Z,11.57
2018-03-02T01:10:03.285Z,11.90
2018-03-02T01:12:31.608Z,9.03
2018-03-02T01:14:59.917Z,11.10
2018-03-02T01:17:28.293Z,10.57
2018-03-02T01:19:56.624Z,11.43
2018-03-02T01:22:24.959Z,11.40
2018-03-02T01:24:54.072Z,11.27
2018-03-02T01:27:23.177Z,10.80
2018-03-02T01:29:51.608Z,10.23
2018-03-02T01:32:19.976Z,10.13
2018-03-02T01:34:48.381Z,13.00
2018-03-02T01:37:16.757Z,11.33
2018-03-02T01:39:45.203Z,10.80
2018-03-02T01:42:14.482Z,12.50
2018-03-02T01:44:42.828Z,10.57
2018-03-02T01:47:11.899Z,6.97
2018-03-02T01:49:40.219Z,12.80
2018-03-02T01:52:08.529Z,12.70
2018-03-02T01:54:37.770Z,9.40
2018-03-02T01:57:06.091Z,12.73
2018-03-02T01:59:34.422Z,10.67
2018-03-02T02:02:03.506Z,12.63
2018-03-02T02:04:31.842Z,13.00
2018-03-02T02:07:00.212Z,10.20
2018-03-02T02:09:28.535Z,11.87
2018-03-02T02:11:56.927Z,12.00
2018-03-02T02:14:25.220Z,7.97
2018-03-02T02:16:53.570Z,11.00
2018-03-02T02:19:22.732Z,13.13
2018-03-02T02:21:51.101Z,12.67
2018-03-02T02:24:19.492Z,12.67
2018-03-02T02:26:47.859Z,14.03
2018-03-02T02:29:16.964Z,12.07
2018-03-02T02:31:46.120Z,12.77
2018-03-02T02:34:14.565Z,13.43
2018-03-02T02:36:43.652Z,12.27
2018-03-02T02:39:11.986Z,10.87
2018-03-02T02:41:40.303Z,12.70
2018-03-02T02:44:08.624Z,11.93
2018-03-02T02:46:37.018Z,11.83
2018-03-02T02:49:05.330Z,11.97
2018-03-02T02:51:34.419Z,11.23
2018-03-02T02:54:02.734Z,12.70
2018-03-02T02:56:31.813Z,11.93
2018-03-02T02:59:00.133Z,10.77
2018-03-02T03:01:29.233Z,11.93
2018-03-02T03:03:57.704Z,11.80
2018-03-02T03:06:26.028Z,14.30
2018-03-02T03:08:55.120Z,11.80
2018-03-02T03:11:24.214Z,13.63
2018-03-02T03:13:52.579Z,12.30
2018-03-02T03:16:21.117Z,13.67
2018-03-02T03:18:49.480Z,16.90
2018-03-02T03:21:17.916Z,10.67
2018-03-02T03:23:46.329Z,14.53
2018-03-02T03:26:15.059Z,14.27
2018-03-02T03:28:43.396Z,12.40
2018-03-02T03:31:11.849Z,11.10
2018-03-02T03:33:40.221Z,14.23
2018-03-02T03:36:08.537Z,11.63
2018-03-02T03:38:36.858Z,14.80
2018-03-02T03:41:05.984Z,15.00
2018-03-02T03:43:34.320Z,14.73
2018-03-02T03:46:02.634Z,13.83
2018-03-02T03:48:30.966Z,14.57
2018-03-02T03:50:59.320Z,12.50
2018-03-02T03:53:27.641Z,13.70
2018-03-02T03:55:55.949Z,13.40
2018-03-02T03:58:24.290Z,11.73
2018-03-02T04:00:52.606Z,9.03
2018-03-02T04:03:20.979Z,12.10
2018-03-02T04:05:50.096Z,11.20
2018-03-02T04:08:19.248Z,13.90
2018-03-02T04:10:47.647Z,10.90
2018-03-02T04:13:16.017Z,15.00
2018-03-02T04:15:44.378Z,15.80
2018-03-02T04:18:13.458Z,11.60
2018-03-02T04:20:41.849Z,11.43
2018-03-02T04:23:10.164Z,11.00
2018-03-02T04:25:39.292Z,8.50
2018-03-02T04:28:08.403Z,12.57
2018-03-02T04:30:36.728Z,14.57
2018-03-02T04:33:05.107Z,11.27
2018-03-02T04:35:33.421Z,14.37
2018-03-02T04:38:01.747Z,13.87
2018-03-02T04:40:30.838Z,14.63
2018-03-02T04:42:59.160Z,11.50
2018-03-02T04:45:28.305Z,12.83
2018-03-02T04:47:56.640Z,12.50
2018-03-02T04:50:25.013Z,14.17
2018-03-02T04:52:53.359Z,15.00
2018-03-02T04:55:21.728Z,13.67
2018-03-02T04:57:50.889Z,15.63
2018-03-02T05:00:19.256Z,14.63
2018-03-02T05:02:47.616Z,14.90
2018-03-02T05:05:16.916Z,13.97
2018-03-02T05:07:45.325Z,14.60
2018-03-02T05:10:13.721Z,14.53
2018-03-02T05:12:42.813Z,13.80
2018-03-02T05:15:11.125Z,13.33
2018-03-02T05:17:40.234Z,15.70
2018-03-02T05:20:09.309Z,15.47
2018-03-02T05:22:37.716Z,9.60
2018-03-02T05:25:06.028Z,10.70
2018-03-02T05:27:34.366Z,15.27
2018-03-02T05:30:02.688Z,14.80
2018-03-02T05:32:31.774Z,13.80
2018-03-02T05:35:00.186Z,15.13
2018-03-02T05:37:28.507Z,16.83
2018-03-02T05:39:56.824Z,13.93
2018-03-02T05:42:25.180Z,14.20
2018-03-02T05:44:54.295Z,15.73
2018-03-02T05:47:24.350Z,14.70
2018-03-02T05:49:52.690Z,15.53
2018-03-02T05:52:21.078Z,13.43
2018-03-02T05:54:50.307Z,13.53
2018-03-02T05:57:19.451Z,15.03
2018-03-02T05:59:48.006Z,15.17
2018-03-02T06:02:17.176Z,17.30
2018-03-02T06:04:45.559Z,16.27
2018-03-02T06:07:13.897Z,13.43
2018-03-02T06:09:43.007Z,11.37
2018-03-02T06:12:11.352Z,15.03
2018-03-02T06:14:39.670Z,9.70
2018-03-02T06:17:08.043Z,12.03
2018-03-02T06:19:36.362Z,15.23
2018-03-02T06:22:04.687Z,15.83
2018-03-02T06:24:33.021Z,15.10
2018-03-02T06:27:01.346Z,15.80
2018-03-02T06:29:30.491Z,17.10
2018-03-02T06:31:58.812Z,16.30
2018-03-02T06:34:27.254Z,14.07
2018-03-02T06:36:56.348Z,16.70
2018-03-02T06:39:25.457Z,15.47
2018-03-02T06:41:54.595Z,12.20
2018-03-02T06:44:22.942Z,13.57
2018-03-02T06:46:51.307Z,16.57
2018-03-02T06:49:19.650Z,17.10
2018-03-02T06:51:48.768Z,16.40
2018-03-02T06:54:17.277Z,16.63
2018-03-02T06:56:45.632Z,16.53
2018-03-02T06:59:14.724Z,18.20
2018-03-02T07:01:43.145Z,11.27
2018-03-02T07:04:12.222Z,14.47
2018-03-02T07:06:40.635Z,18.20
2018-03-02T07:09:09.733Z,16.07
2018-03-02T07:11:38.075Z,15.03
2018-03-02T07:14:06.401Z,18.37
2018-03-02T07:16:34.723Z,13.17
2018-03-02T07:19:03.955Z,11.60
2018-03-02T07:21:32.324Z,11.50
2018-03-02T07:24:00.649Z,16.90
2018-03-02T07:26:29.008Z,15.67
2018-03-02T07:28:58.082Z,17.17
2018-03-02T07:31:26.407Z,12.43
2018-03-02T07:33:55.506Z,17.77
2018-03-02T07:36:24.696Z,13.90
2018-03-02T07:38:53.041Z,16.90
2018-03-02T07:41:21.371Z,15.97
2018-03-02T07:43:49.821Z,13.70
2018-03-02T07:46:18.935Z,15.50
2018-03-02T07:48:47.399Z,17.33
2018-03-02T07:51:16.493Z,16.47
2018-03-02T07:53:44.901Z,17.40
2018-03-02T07:56:13.997Z,14.47
2018-03-02T07:58:42.351Z,17.20
2018-03-02T08:01:10.734Z,18.53
2018-03-02T08:03:39.065Z,18.07
2018-03-02T08:06:07.395Z,16.70
2018-03-02T08:08:35.818Z,17.77
2018-03-02T08:11:04.172Z,17.30
2018-03-02T08:13:33.335Z,16.27
2018-03-02T08:16:01.666Z,17.10
2018-03-02T08:18:30.758Z,17.77
2018-03-02T08:20:59.072Z,16.90
2018-03-02T08:23:28.175Z,14.90
2018-03-02T08:25:57.335Z,14.20
2018-03-02T08:28:25.666Z,15.40
2018-03-02T08:30:54.019Z,13.77
2018-03-02T08:33:22.359Z,16.43
2018-03-02T08:35:50.762Z,16.40
2018-03-02T08:38:19.164Z,10.97
2018-03-02T08:40:47.561Z,17.40
2018-03-02T08:43:16.795Z,16.93
2018-03-02T08:45:45.139Z,17.17
2018-03-02T08:48:14.467Z,16.77
2018-03-02T08:50:42.845Z,17.20
2018-03-02T08:53:11.934Z,16.77
2018-03-02T08:55:40.264Z,17.23
2018-03-02T08:58:08.655Z,15.00
2018-03-02T09:00:37.095Z,13.20
2018-03-02T09:03:05.503Z,18.77
2018-03-02T09:05:33.865Z,18.13
2018-03-02T09:08:02.189Z,17.40
2018-03-02T09:10:30.510Z,15.33
2018-03-02T09:12:58.824Z,15.70
2018-03-02T09:15:27.157Z,16.83
2018-03-02T09:17:55.505Z,17.03
2018-03-02T09:20:23.931Z,18.40
2018-03-02T09:22:52.280Z,16.40
2018-03-02T09:25:20.652Z,15.07
2018-03-02T09:27:49.042Z,16.13
2018-03-02T09:30:17.374Z,16.03
2018-03-02T09:32:45.968Z,15.77
2018-03-02T09:35:14.308Z,17.53
2018-03-02T09:37:43.387Z,17.90
2018-03-02T09:40:11.681Z,16.63
2018-03-02T09:42:40.022Z,16.10
2018-03-02T09:45:08.411Z,17.17
2018-03-02T09:47:36.719Z,17.50
2018-03-02T09:50:05.027Z,17.77
2018-03-02T09:52:33.371Z,15.60
2018-03-02T09:55:02.483Z,16.30
2018-03-02T09:57:31.668Z,15.63
2018-03-02T09:59:59.988Z,16.50
2018-03-02T10:02:28.302Z,15.00
2018-03-02T10:04:56.621Z,18.83
2018-03-02T10:07:24.943Z,16.50
2018-03-02T10:09:54.134Z,16.33
2018-03-02T10:12:22.490Z,15.80
2018-03-02T10:14:50.846Z,15.20
2018-03-02T10:17:19.968Z,16.40
2018-03-02T10:19:48.380Z,16.63
2018-03-02T10:22:16.792Z,17.00
2018-03-02T10:24:45.120Z,17.43
2018-03-02T10:27:14.241Z,18.03
2018-03-02T10:29:42.604Z,18.07
2018-03-02T10:32:10.935Z,18.60
2018-03-02T10:34:39.644Z,15.60
2018-03-02T10:37:08.058Z,17.10
2018-03-02T10:39:36.400Z,18.20
2018-03-02T10:42:04.699Z,15.63
2018-03-02T10:44:33.859Z,12.47
2018-03-02T10:47:02.258Z,15.70
2018-03-02T10:49:30.577Z,15.20
2018-03-02T10:51:59.657Z,14.70
2018-03-02T10:54:28.059Z,15.90
2018-03-02T10:56:56.395Z,16.60
2018-03-02T10:59:24.799Z,17.17
2018-03-02T11:01:54.036Z,17.63
2018-03-02T11:04:37.252Z,17.40
2018-03-02T11:07:05.581Z,15.67
2018-03-02T11:09:33.991Z,18.00
2018-03-02T11:12:02.320Z,16.90
2018-03-02T11:14:30.648Z,18.40
2018-03-02T11:16:58.990Z,16.60
2018-03-02T11:19:27.326Z,16.50
2018-03-02T11:21:55.707Z,16.50
2018-03-02T11:24:24.143Z,16.60
2018-03-02T11:26:54.920Z,18.77
2018-03-02T11:29:24.926Z,16.97
2018-03-02T11:31:54.075Z,17.77
2018-03-02T11:34:22.671Z,16.87
2018-03-02T11:36:51.126Z,18.20
2018-03-02T11:39:20.228Z,16.60
2018-03-02T11:41:48.592Z,17.27
2018-03-02T11:44:17.069Z,18.07
2018-03-02T11:46:45.445Z,18.00
2018-03-02T11:49:13.787Z,16.10
2018-03-02T11:51:42.129Z,17.17
2018-03-02T11:54:10.479Z,16.83
2018-03-02T11:56:39.789Z,18.10
2018-03-02T11:59:08.128Z,16.60
2018-03-02T12:01:36.462Z,16.40
2018-03-02T12:04:04.811Z,18.13
2018-03-02T12:06:33.148Z,18.10
2018-03-02T12:09:01.544Z,17.70
2018-03-02T12:11:29.904Z,16.00
2018-03-02T12:13:58.264Z,15.53
2018-03-02T12:16:26.605Z,16.13
2018-03-02T12:18:54.998Z,15.97
2018-03-02T12:21:23.425Z,16.33
2018-03-02T12:23:52.565Z,17.33
2018-03-02T12:26:20.915Z,15.17
2018-03-02T12:28:50.043Z,16.73
2018-03-02T12:31:19.205Z,16.07
2018-03-02T12:33:47.669Z,16.73
2018-03-02T12:36:16.126Z,16.23
2018-03-02T12:38:45.312Z,15.47
2018-03-02T12:41:13.665Z,18.33
2018-03-02T12:43:42.011Z,15.70
2018-03-02T12:46:10.450Z,17.93
2018-03-02T12:48:38.788Z,16.27
2018-03-02T12:51:07.194Z,17.07
2018-03-02T12:53:36.354Z,18.33
2018-03-02T12:56:04.692Z,19.20
2018-03-02T12:58:33.805Z,18.90
2018-03-02T13:01:02.932Z,20.40
2018-03-02T13:03:31.338Z,19.10
2018-03-02T13:05:59.676Z,21.20
2018-03-02T13:08:28.031Z,18.70
2018-03-02T13:10:56.365Z,19.50
2018-03-02T13:13:24.736Z,20.30
2018-03-02T13:15:53.201Z,20.10
2018-03-02T13:18:33.382Z,18.70
2018-03-02T13:21:01.780Z,18.80
2018-03-02T13:23:30.122Z,17.90
2018-03-02T13:25:59.215Z,20.20
2018-03-02T13:28:39.405Z,19.53
2018-03-02T13:31:08.494Z,17.50
2018-03-02T13:33:48.728Z,19.70
2018-03-02T13:36:18.045Z,17.90
2018-03-02T13:38:46.557Z,18.33
2018-03-02T13:41:26.674Z,17.27
2018-03-02T13:43:55.091Z,19.53
2018-03-02T13:46:23.455Z,19.30
2018-03-02T13:49:03.437Z,17.10
2018-03-02T13:51:31.759Z,18.17
2018-03-02T13:54:00.206Z,18.73
2018-03-02T13:56:40.383Z,18.63
2018-03-02T13:59:08.762Z,19.40
2018-03-02T14:01:37.084Z,17.33
2018-03-02T14:04:17.312Z,17.53
2018-03-02T14:06:46.476Z,16.57
2018-03-02T14:09:14.876Z,19.50
2018-03-02T14:11:43.266Z,18.97
2018-03-02T14:14:11.612Z,19.53
2018-03-02T14:16:40.105Z,18.63
2018-03-02T14:19:08.449Z,20.07
2018-03-02T14:21:36.766Z,18.80
2018-03-02T14:24:06.445Z,17.37
2018-03-02T14:26:36.097Z,17.93
2018-03-02T14:29:04.504Z,18.70
2018-03-02T14:31:32.880Z,19.20
2018-03-02T14:34:01.185Z,18.50
2018-03-02T14:36:30.296Z,20.07
2018-03-02T14:38:59.406Z,18.40
2018-03-02T14:41:28.556Z,19.33
2018-03-02T14:43:56.958Z,18.30
2018-03-02T14:46:25.311Z,19.13
2018-03-02T14:48:54.449Z,17.27
2018-03-02T14:51:22.775Z,19.40
2018-03-02T14:53:51.515Z,16.17
2018-03-02T14:56:20.736Z,18.43
2018-03-02T14:58:49.097Z,17.53
2018-03-02T15:01:17.535Z,19.37
2018-03-02T15:03:45.881Z,17.90
2018-03-02T15:06:15.059Z,18.47
2018-03-02T15:08:43.395Z,18.90
2018-03-02T15:11:12.113Z,17.27
2018-03-02T15:13:40.481Z,17.60
2018-03-02T15:16:09.666Z,15.83
2018-03-02T15:18:38.093Z,17.10
2018-03-02T15:21:07.202Z,16.30
2018-03-02T15:23:36.300Z,15.57
2018-03-02T15:26:04.625Z,14.30
2018-03-02T15:28:32.982Z,15.60
2018-03-02T15:31:01.409Z,15.70
2018-03-02T15:33:29.751Z,16.27
2018-03-02T15:35:58.089Z,16.43
2018-03-02T15:38:26.437Z,17.20
2018-03-02T15:40:54.825Z,16.10
2018-03-02T15:43:23.248Z,15.80
2018-03-02T15:45:52.368Z,16.37
2018-03-02T15:48:21.523Z,17.57
2018-03-02T15:50:49.968Z,16.10
2018-03-02T15:53:18.341Z,15.77
2018-03-02T15:55:47.582Z,16.23
2018-03-02T15:58:16.026Z,14.97
2018-03-02T16:00:44.385Z,14.77
2018-03-02T16:03:12.815Z,14.47
2018-03-02T16:05:41.955Z,13.23
2018-03-02T16:08:11.137Z,14.67
2018-03-02T16:10:39.486Z,13.60
2018-03-02T16:13:07.823Z,15.73
2018-03-02T16:15:36.275Z,15.83
2018-03-02T16:18:04.625Z,14.53
2018-03-02T16:20:33.940Z,14.90
2018-03-02T16:23:02.282Z,15.60
2018-03-02T16:25:30.630Z,14.03
2018-03-02T16:27:58.968Z,16.17
2018-03-02T16:30:27.323Z,17.27
2018-03-02T16:32:55.804Z,16.93
2018-03-02T16:35:24.135Z,16.80
2018-03-02T16:37:52.524Z,18.23
2018-03-02T16:40:20.892Z,16.77
2018-03-02T16:42:50.209Z,17.30
2018-03-02T16:45:18.664Z,16.13
2018-03-02T16:47:47.130Z,16.90
2018-03-02T16:50:15.539Z,16.83
2018-03-02T16:52:43.920Z,17.23
2018-03-02T16:55:13.334Z,18.60
2018-03-02T16:57:42.491Z,16.80
2018-03-02T17:00:10.840Z,17.53
2018-03-02T17:02:39.185Z,18.20
2018-03-02T17:05:07.559Z,19.47
2018-03-02T17:07:36.716Z,17.90
2018-03-02T17:10:05.102Z,18.70
2018-03-02T17:12:33.444Z,19.80
2018-03-02T17:15:02.627Z,19.80
2018-03-02T17:17:30.989Z,18.10
2018-03-02T17:19:59.387Z,15.27
2018-03-02T17:22:27.741Z,19.00
2018-03-02T17:24:56.105Z,16.00
2018-03-02T17:27:24.604Z,17.63
2018-03-02T17:29:52.971Z,21.07
2018-03-02T17:32:22.074Z,19.30
2018-03-02T17:34:50.409Z,17.73
2018-03-02T17:37:19.539Z,18.87
2018-03-02T17:39:47.964Z,20.10
2018-03-02T17:42:16.402Z,20.80
2018-03-02T17:44:45.531Z,16.80
2018-03-02T17:47:14.010Z,18.97
2018-03-02T17:49:42.444Z,21.00
2018-03-02T17:52:11.151Z,18.17
2018-03-02T17:54:39.498Z,18.23
2018-03-02T17:57:07.893Z,18.20
2018-03-02T17:59:37.050Z,19.33
2018-03-02T18:02:05.416Z,18.93
2018-03-02T18:04:33.813Z,19.80
2018-03-02T18:07:02.406Z,15.00
2018-03-02T18:09:30.746Z,21.73
2018-03-02T18:11:59.107Z,21.43
2018-03-02T18:14:27.477Z,21.97
2018-03-02T18:16:55.891Z,20.60
2018-03-02T18:19:24.261Z,20.40
2018-03-02T18:21:52.615Z,22.80
2018-03-02T18:24:21.775Z,21.57
2018-03-02T18:26:50.167Z,16.77
2018-03-02T18:29:18.603Z,22.73
2018-03-02T18:31:46.985Z,18.67
2018-03-02T18:34:15.324Z,22.03
2018-03-02T18:36:43.660Z,22.77
2018-03-02T18:39:12.012Z,22.73
2018-03-02T18:41:40.362Z,20.77
2018-03-02T18:44:08.780Z,22.90
2018-03-02T18:46:37.193Z,21.90
2018-03-02T18:49:06.525Z,23.93
2018-03-02T18:51:34.875Z,18.97
2018-03-02T18:54:03.228Z,21.47
2018-03-02T18:56:31.588Z,22.50
2018-03-02T18:59:00.011Z,24.70
2018-03-02T19:01:28.456Z,24.03
2018-03-02T19:03:57.186Z,21.97
2018-03-02T19:06:25.544Z,16.97
2018-03-02T19:08:53.953Z,24.80
2018-03-02T19:11:22.420Z,22.50
2018-03-02T19:13:51.628Z,21.33
2018-03-02T19:16:20.754Z,18.97
2018-03-02T19:18:49.122Z,24.47
2018-03-02T19:21:18.263Z,23.57
2018-03-02T19:23:47.486Z,21.07
2018-03-02T19:26:15.839Z,20.27
2018-03-02T19:28:44.956Z,24.17
2018-03-02T19:31:13.307Z,23.60
2018-03-02T19:33:41.655Z,25.27
2018-03-02T19:36:10.052Z,21.73
2018-03-02T19:38:38.444Z,25.50
2018-03-02T19:41:06.919Z,25.53
2018-03-02T19:43:35.282Z,18.13
2018-03-02T19:46:03.679Z,21.73
2018-03-02T19:48:32.018Z,22.20
2018-03-02T19:51:00.368Z,24.30
2018-03-02T19:53:29.522Z,25.60
2018-03-02T19:55:57.886Z,21.77
2018-03-02T19:58:26.233Z,18.73
2018-03-02T20:00:54.701Z,25.10
2018-03-02T20:03:23.062Z,26.47
2018-03-02T20:05:52.335Z,21.33
2018-03-02T20:08:20.746Z,22.93
2018-03-02T20:10:49.110Z,20.87
2018-03-02T20:13:17.501Z,16.97
2018-03-02T20:15:45.858Z,23.50
2018-03-02T20:18:14.256Z,23.20
2018-03-02T20:20:42.594Z,20.10
2018-03-02T20:23:10.939Z,23.87
2018-03-02T20:25:39.301Z,25.80
2018-03-02T20:28:08.422Z,26.30
2018-03-02T20:30:37.149Z,22.17
2018-03-02T20:33:05.502Z,23.73
2018-03-02T20:35:33.842Z,21.00
2018-03-02T20:38:02.187Z,24.27
2018-03-02T20:40:31.306Z,23.40
2018-03-02T20:42:59.700Z,25.40
2018-03-02T20:45:27.998Z,23.63
2018-03-02T20:47:56.419Z,23.40
2018-03-02T20:50:24.774Z,20.00
2018-03-02T20:52:53.139Z,25.20
2018-03-02T20:55:22.312Z,23.70
2018-03-02T20:57:50.690Z,23.53
2018-03-02T21:00:19.111Z,25.40
2018-03-02T21:02:47.471Z,25.50
2018-03-02T21:05:15.858Z,27.40
2018-03-02T21:07:44.443Z,24.50
2018-03-02T21:10:12.781Z,24.13
2018-03-02T21:12:41.345Z,27.77
2018-03-02T21:15:09.671Z,24.17
2018-03-02T21:17:38.006Z,25.00
2018-03-02T21:20:06.362Z,21.13
2018-03-02T21:22:34.671Z,25.13
2018-03-02T21:25:03.940Z,21.30
2018-03-02T21:27:32.256Z,23.33
2018-03-02T21:30:00.568Z,24.23
2018-03-02T21:32:29.670Z,24.33
2018-03-02T21:34:58.784Z,20.13
2018-03-02T21:37:27.941Z,24.43
2018-03-02T21:39:56.318Z,21.67
2018-03-02T21:42:24.678Z,20.60
2018-03-02T21:44:53.836Z,21.60
2018-03-02T21:47:22.206Z,24.27
2018-03-02T21:49:50.649Z,23.10
2018-03-02T21:52:19.020Z,23.67
2018-03-02T21:54:47.386Z,22.10
2018-03-02T21:57:15.794Z,20.37
2018-03-02T21:59:44.166Z,23.50
2018-03-02T22:02:12.572Z,23.80
2018-03-02T22:04:40.917Z,22.47
2018-03-02T22:07:10.025Z,25.13
2018-03-02T22:09:39.135Z,21.77
2018-03-02T22:12:08.240Z,18.77
2018-03-02T22:14:37.351Z,24.20
2018-03-02T22:17:05.708Z,21.93
2018-03-02T22:19:34.118Z,26.40
2018-03-02T22:22:02.461Z,22.17
2018-03-02T22:24:30.785Z,25.80
2018-03-02T22:26:59.136Z,22.60
2018-03-02T22:29:27.482Z,24.83
2018-03-02T22:31:55.870Z,22.43
2018-03-02T22:34:25.064Z,22.47
2018-03-02T22:36:53.424Z,22.73
2018-03-02T22:39:21.815Z,22.10
2018-03-02T22:41:50.147Z,20.67
2018-03-02T22:44:18.595Z,23.07
2018-03-02T22:46:47.770Z,22.73
2018-03-02T22:49:16.127Z,23.00
2018-03-02T22:51:44.475Z,24.47
2018-03-02T22:54:13.657Z,23.70
2018-03-02T22:56:42.071Z,23.93
2018-03-02T22:59:11.177Z,23.53
2018-03-02T23:01:40.297Z,25.10
2018-03-02T23:04:09.386Z,24.80
2018-03-02T23:06:37.818Z,25.53
2018-03-02T23:09:06.281Z,24.53
2018-03-02T23:11:35.389Z,19.67
2018-03-02T23:14:04.499Z,25.23
2018-03-02T23:16:33.674Z,26.07
2018-03-02T23:19:02.080Z,24.37
2018-03-02T23:21:30.523Z,23.10
2018-03-02T23:23:58.853Z,23.60
2018-03-02T23:26:27.168Z,24.87
2018-03-02T23:28:55.505Z,23.37
2018-03-02T23:31:23.864Z,22.97
2018-03-02T23:33:53.052Z,22.53
2018-03-02T23:36:21.411Z,24.63
2018-03-02T23:38:49.742Z,24.60
2018-03-02T23:41:18.089Z,25.10
2018-03-02T23:43:46.527Z,22.27
2018-03-02T23:46:14.959Z,25.10
2018-03-02T23:48:43.319Z,25.10
2018-03-02T23:51:12.443Z,26.40
2018-03-02T23:53:40.786Z,23.57
2018-03-02T23:56:09.160Z,22.97
2018-03-02T23:58:37.506Z,25.30
